sensor_id;sensor_type;location;lat;lon;timestamp;P1;durP1;ratioP1;P2;durP2;ratioP2
38132;SDS011;23948;43.252;26.572;2022-11-20T00:00:05;13.02;;;4.18;;
38132;SDS011;23948;43.252;26.572;2022-11-20T00:02:31;11.98;;;3.90;;
38132;SDS011;23948;43.252;26.572;2022-11-20T00:04:57;12.10;;;4.32;;
38132;SDS011;23948;43.252;26.572;2022-11-20T00:07:22;13.55;;;3.75;;
38132;SDS011;23948;43.252;26.572;2022-11-20T00:09:48;10.35;;;3.95;;
38132;SDS011;23948;43.252;26.572;2022-11-20T00:12:13;17.52;;;3.67;;
38132;SDS011;23948;43.252;26.572;2022-11-20T00:14:39;12.95;;;3.88;;
38132;SDS011;23948;43.252;26.572;2022-11-20T00:17:06;12.13;;;4.05;;
38132;SDS011;23948;43.252;26.572;2022-11-20T00:19:31;19.17;;;4.47;;
38132;SDS011;23948;43.252;26.572;2022-11-20T00:21:57;12.30;;;3.80;;
38132;SDS011;23948;43.252;26.572;2022-11-20T00:24:22;13.35;;;3.60;;
38132;SDS011;23948;43.252;26.572;2022-11-20T00:26:47;12.60;;;3.70;;
38132;SDS011;23948;43.252;26.572;2022-11-20T00:29:13;13.23;;;3.28;;
38132;SDS011;23948;43.252;26.572;2022-11-20T00:31:38;9.32;;;3.65;;
38132;SDS011;23948;43.252;26.572;2022-11-20T00:34:04;10.07;;;3.88;;
38132;SDS011;23948;43.252;26.572;2022-11-20T00:36:31;12.00;;;3.80;;
38132;SDS011;23948;43.252;26.572;2022-11-20T00:39:01;11.15;;;3.40;;
38132;SDS011;23948;43.252;26.572;2022-11-20T00:41:27;9.85;;;3.40;;
38132;SDS011;23948;43.252;26.572;2022-11-20T00:43:54;10.60;;;3.53;;
38132;SDS011;23948;43.252;26.572;2022-11-20T00:46:21;15.18;;;4.00;;
38132;SDS011;23948;43.252;26.572;2022-11-20T00:48:47;10.25;;;3.70;;
38132;SDS011;23948;43.252;26.572;2022-11-20T00:51:14;13.02;;;3.63;;
38132;SDS011;23948;43.252;26.572;2022-11-20T00:53:42;14.63;;;3.90;;
38132;SDS011;23948;43.252;26.572;2022-11-20T00:56:09;16.45;;;4.47;;
38132;SDS011;23948;43.252;26.572;2022-11-20T00:58:37;10.85;;;3.47;;
38132;SDS011;23948;43.252;26.572;2022-11-20T01:01:09;11.52;;;3.58;;
38132;SDS011;23948;43.252;26.572;2022-11-20T01:03:40;13.10;;;3.70;;
38132;SDS011;23948;43.252;26.572;2022-11-20T01:06:11;12.05;;;3.72;;
38132;SDS011;23948;43.252;26.572;2022-11-20T01:08:39;12.82;;;3.35;;
38132;SDS011;23948;43.252;26.572;2022-11-20T01:11:06;12.05;;;3.47;;
38132;SDS011;23948;43.252;26.572;2022-11-20T01:13:34;9.82;;;3.40;;
38132;SDS011;23948;43.252;26.572;2022-11-20T01:16:05;10.15;;;3.22;;
38132;SDS011;23948;43.252;26.572;2022-11-20T01:18:37;10.32;;;3.40;;
38132;SDS011;23948;43.252;26.572;2022-11-20T01:21:13;11.07;;;3.15;;
38132;SDS011;23948;43.252;26.572;2022-11-20T01:23:59;13.07;;;3.20;;
38132;SDS011;23948;43.252;26.572;2022-11-20T01:26:26;11.98;;;3.30;;
38132;SDS011;23948;43.252;26.572;2022-11-20T01:28:54;8.90;;;3.08;;
38132;SDS011;23948;43.252;26.572;2022-11-20T01:31:21;13.48;;;3.67;;
38132;SDS011;23948;43.252;26.572;2022-11-20T01:33:55;11.38;;;3.13;;
38132;SDS011;23948;43.252;26.572;2022-11-20T01:36:23;13.15;;;3.15;;
38132;SDS011;23948;43.252;26.572;2022-11-20T01:38:53;14.77;;;3.60;;
38132;SDS011;23948;43.252;26.572;2022-11-20T01:41:20;13.32;;;3.75;;
38132;SDS011;23948;43.252;26.572;2022-11-20T01:44:06;11.98;;;3.85;;
38132;SDS011;23948;43.252;26.572;2022-11-20T01:46:32;9.50;;;3.13;;
38132;SDS011;23948;43.252;26.572;2022-11-20T01:49:20;11.75;;;3.00;;
38132;SDS011;23948;43.252;26.572;2022-11-20T01:51:58;12.05;;;3.33;;
38132;SDS011;23948;43.252;26.572;2022-11-20T01:54:33;11.52;;;2.90;;
38132;SDS011;23948;43.252;26.572;2022-11-20T01:57:01;12.98;;;3.30;;
38132;SDS011;23948;43.252;26.572;2022-11-20T01:59:29;10.88;;;3.03;;
38132;SDS011;23948;43.252;26.572;2022-11-20T02:01:55;15.68;;;3.53;;
38132;SDS011;23948;43.252;26.572;2022-11-20T02:04:20;10.38;;;3.17;;
38132;SDS011;23948;43.252;26.572;2022-11-20T02:06:48;10.02;;;3.38;;
38132;SDS011;23948;43.252;26.572;2022-11-20T02:09:18;9.88;;;3.00;;
38132;SDS011;23948;43.252;26.572;2022-11-20T02:11:44;12.60;;;2.75;;
38132;SDS011;23948;43.252;26.572;2022-11-20T02:14:09;13.77;;;3.05;;
38132;SDS011;23948;43.252;26.572;2022-11-20T02:16:45;9.60;;;2.70;;
38132;SDS011;23948;43.252;26.572;2022-11-20T02:19:16;11.98;;;3.30;;
38132;SDS011;23948;43.252;26.572;2022-11-20T02:21:51;11.13;;;2.75;;
38132;SDS011;23948;43.252;26.572;2022-11-20T02:24:21;12.68;;;3.00;;
38132;SDS011;23948;43.252;26.572;2022-11-20T02:29:50;12.25;;;3.30;;
38132;SDS011;23948;43.252;26.572;2022-11-20T02:32:22;12.35;;;4.07;;
38132;SDS011;23948;43.252;26.572;2022-11-20T02:34:53;11.95;;;3.25;;
38132;SDS011;23948;43.252;26.572;2022-11-20T02:37:19;12.30;;;3.15;;
38132;SDS011;23948;43.252;26.572;2022-11-20T02:39:49;12.27;;;3.92;;
38132;SDS011;23948;43.252;26.572;2022-11-20T02:42:17;14.40;;;3.85;;
38132;SDS011;23948;43.252;26.572;2022-11-20T02:44:43;9.23;;;3.00;;
38132;SDS011;23948;43.252;26.572;2022-11-20T02:47:08;9.00;;;3.15;;
38132;SDS011;23948;43.252;26.572;2022-11-20T02:49:34;11.43;;;3.50;;
38132;SDS011;23948;43.252;26.572;2022-11-20T02:52:00;11.68;;;3.20;;
38132;SDS011;23948;43.252;26.572;2022-11-20T02:54:26;10.88;;;3.63;;
38132;SDS011;23948;43.252;26.572;2022-11-20T02:56:51;15.18;;;3.38;;
38132;SDS011;23948;43.252;26.572;2022-11-20T02:59:17;8.45;;;3.10;;
38132;SDS011;23948;43.252;26.572;2022-11-20T03:01:42;11.73;;;3.70;;
38132;SDS011;23948;43.252;26.572;2022-11-20T03:04:08;10.63;;;3.55;;
38132;SDS011;23948;43.252;26.572;2022-11-20T03:06:33;10.80;;;3.22;;
38132;SDS011;23948;43.252;26.572;2022-11-20T03:08:59;10.88;;;3.15;;
38132;SDS011;23948;43.252;26.572;2022-11-20T03:11:24;11.57;;;3.33;;
38132;SDS011;23948;43.252;26.572;2022-11-20T03:13:50;11.57;;;3.40;;
38132;SDS011;23948;43.252;26.572;2022-11-20T03:16:16;11.98;;;3.22;;
38132;SDS011;23948;43.252;26.572;2022-11-20T03:18:46;9.85;;;3.08;;
38132;SDS011;23948;43.252;26.572;2022-11-20T03:21:12;11.13;;;3.15;;
38132;SDS011;23948;43.252;26.572;2022-11-20T03:23:38;11.77;;;3.30;;
38132;SDS011;23948;43.252;26.572;2022-11-20T03:26:18;11.57;;;3.50;;
38132;SDS011;23948;43.252;26.572;2022-11-20T03:28:46;9.93;;;2.85;;
38132;SDS011;23948;43.252;26.572;2022-11-20T03:31:13;10.30;;;3.28;;
38132;SDS011;23948;43.252;26.572;2022-11-20T03:33:40;7.20;;;2.97;;
38132;SDS011;23948;43.252;26.572;2022-11-20T03:36:08;7.72;;;2.40;;
38132;SDS011;23948;43.252;26.572;2022-11-20T03:38:35;10.50;;;3.00;;
38132;SDS011;23948;43.252;26.572;2022-11-20T03:41:06;10.05;;;2.90;;
38132;SDS011;23948;43.252;26.572;2022-11-20T03:43:35;10.93;;;2.85;;
38132;SDS011;23948;43.252;26.572;2022-11-20T03:46:01;10.77;;;2.90;;
38132;SDS011;23948;43.252;26.572;2022-11-20T03:48:27;8.75;;;3.10;;
38132;SDS011;23948;43.252;26.572;2022-11-20T03:50:54;10.00;;;3.20;;
38132;SDS011;23948;43.252;26.572;2022-11-20T03:53:35;13.00;;;3.67;;
38132;SDS011;23948;43.252;26.572;2022-11-20T03:56:00;10.65;;;3.03;;
38132;SDS011;23948;43.252;26.572;2022-11-20T03:58:26;10.90;;;3.08;;
38132;SDS011;23948;43.252;26.572;2022-11-20T04:00:51;11.95;;;2.53;;
38132;SDS011;23948;43.252;26.572;2022-11-20T04:03:17;9.27;;;3.20;;
38132;SDS011;23948;43.252;26.572;2022-11-20T04:05:42;12.15;;;2.90;;
38132;SDS011;23948;43.252;26.572;2022-11-20T04:08:08;10.23;;;3.25;;
38132;SDS011;23948;43.252;26.572;2022-11-20T04:10:33;8.48;;;2.97;;
38132;SDS011;23948;43.252;26.572;2022-11-20T04:12:59;13.73;;;3.03;;
38132;SDS011;23948;43.252;26.572;2022-11-20T04:15:24;14.52;;;3.28;;
38132;SDS011;23948;43.252;26.572;2022-11-20T04:17:49;11.00;;;3.53;;
38132;SDS011;23948;43.252;26.572;2022-11-20T04:20:15;11.02;;;3.30;;
38132;SDS011;23948;43.252;26.572;2022-11-20T04:22:40;12.48;;;3.20;;
38132;SDS011;23948;43.252;26.572;2022-11-20T04:25:06;8.25;;;2.65;;
38132;SDS011;23948;43.252;26.572;2022-11-20T04:27:32;11.43;;;3.40;;
38132;SDS011;23948;43.252;26.572;2022-11-20T04:29:57;12.20;;;3.72;;
38132;SDS011;23948;43.252;26.572;2022-11-20T04:32:22;11.60;;;3.58;;
38132;SDS011;23948;43.252;26.572;2022-11-20T04:34:48;8.80;;;2.80;;
38132;SDS011;23948;43.252;26.572;2022-11-20T04:37:13;11.30;;;3.33;;
38132;SDS011;23948;43.252;26.572;2022-11-20T04:39:39;11.95;;;2.97;;
38132;SDS011;23948;43.252;26.572;2022-11-20T04:42:04;10.55;;;2.97;;
38132;SDS011;23948;43.252;26.572;2022-11-20T04:44:48;10.43;;;2.72;;
38132;SDS011;23948;43.252;26.572;2022-11-20T04:47:14;8.75;;;2.80;;
38132;SDS011;23948;43.252;26.572;2022-11-20T04:49:39;11.05;;;3.17;;
38132;SDS011;23948;43.252;26.572;2022-11-20T04:52:05;9.50;;;2.72;;
38132;SDS011;23948;43.252;26.572;2022-11-20T04:54:30;15.07;;;3.20;;
38132;SDS011;23948;43.252;26.572;2022-11-20T04:56:55;11.48;;;2.60;;
38132;SDS011;23948;43.252;26.572;2022-11-20T04:59:21;16.52;;;2.80;;
38132;SDS011;23948;43.252;26.572;2022-11-20T05:01:47;11.65;;;3.75;;
38132;SDS011;23948;43.252;26.572;2022-11-20T05:04:12;9.23;;;2.67;;
38132;SDS011;23948;43.252;26.572;2022-11-20T05:06:38;9.05;;;3.00;;
38132;SDS011;23948;43.252;26.572;2022-11-20T05:09:03;11.02;;;3.40;;
38132;SDS011;23948;43.252;26.572;2022-11-20T05:11:29;8.38;;;3.28;;
38132;SDS011;23948;43.252;26.572;2022-11-20T05:13:54;10.10;;;2.85;;
38132;SDS011;23948;43.252;26.572;2022-11-20T05:16:21;12.38;;;3.15;;
38132;SDS011;23948;43.252;26.572;2022-11-20T05:18:49;13.70;;;3.13;;
38132;SDS011;23948;43.252;26.572;2022-11-20T05:21:17;8.98;;;3.15;;
38132;SDS011;23948;43.252;26.572;2022-11-20T05:23:43;12.55;;;2.83;;
38132;SDS011;23948;43.252;26.572;2022-11-20T05:26:20;8.25;;;3.03;;
38132;SDS011;23948;43.252;26.572;2022-11-20T05:28:47;7.80;;;2.83;;
38132;SDS011;23948;43.252;26.572;2022-11-20T05:31:14;16.38;;;4.40;;
38132;SDS011;23948;43.252;26.572;2022-11-20T05:33:42;13.30;;;4.70;;
38132;SDS011;23948;43.252;26.572;2022-11-20T05:36:11;10.98;;;3.78;;
38132;SDS011;23948;43.252;26.572;2022-11-20T05:38:38;9.63;;;3.30;;
38132;SDS011;23948;43.252;26.572;2022-11-20T05:41:12;10.90;;;3.28;;
38132;SDS011;23948;43.252;26.572;2022-11-20T05:43:40;11.25;;;3.47;;
38132;SDS011;23948;43.252;26.572;2022-11-20T05:46:07;12.13;;;3.13;;
38132;SDS011;23948;43.252;26.572;2022-11-20T05:48:35;11.75;;;2.90;;
38132;SDS011;23948;43.252;26.572;2022-11-20T05:51:02;14.82;;;2.85;;
38132;SDS011;23948;43.252;26.572;2022-11-20T05:53:29;8.00;;;2.97;;
38132;SDS011;23948;43.252;26.572;2022-11-20T05:56:02;11.80;;;2.60;;
38132;SDS011;23948;43.252;26.572;2022-11-20T05:58:34;10.00;;;3.53;;
38132;SDS011;23948;43.252;26.572;2022-11-20T06:03:37;9.63;;;3.03;;
38132;SDS011;23948;43.252;26.572;2022-11-20T06:06:03;9.77;;;3.03;;
38132;SDS011;23948;43.252;26.572;2022-11-20T06:08:30;9.02;;;3.10;;
38132;SDS011;23948;43.252;26.572;2022-11-20T06:10:56;9.77;;;3.10;;
38132;SDS011;23948;43.252;26.572;2022-11-20T06:13:21;8.48;;;2.78;;
38132;SDS011;23948;43.252;26.572;2022-11-20T06:15:50;7.50;;;2.60;;
38132;SDS011;23948;43.252;26.572;2022-11-20T06:18:17;14.98;;;3.20;;
38132;SDS011;23948;43.252;26.572;2022-11-20T06:20:44;8.68;;;2.80;;
38132;SDS011;23948;43.252;26.572;2022-11-20T06:23:10;11.15;;;4.10;;
38132;SDS011;23948;43.252;26.572;2022-11-20T06:25:39;14.07;;;3.75;;
38132;SDS011;23948;43.252;26.572;2022-11-20T06:28:06;11.45;;;3.30;;
38132;SDS011;23948;43.252;26.572;2022-11-20T06:30:32;11.93;;;2.70;;
38132;SDS011;23948;43.252;26.572;2022-11-20T06:32:58;7.70;;;2.50;;
38132;SDS011;23948;43.252;26.572;2022-11-20T06:35:24;8.07;;;2.88;;
38132;SDS011;23948;43.252;26.572;2022-11-20T06:37:49;7.65;;;2.90;;
38132;SDS011;23948;43.252;26.572;2022-11-20T06:40:16;13.02;;;3.00;;
38132;SDS011;23948;43.252;26.572;2022-11-20T06:42:41;10.25;;;2.95;;
38132;SDS011;23948;43.252;26.572;2022-11-20T06:45:07;13.35;;;4.25;;
38132;SDS011;23948;43.252;26.572;2022-11-20T06:47:33;12.90;;;3.20;;
38132;SDS011;23948;43.252;26.572;2022-11-20T06:49:59;10.00;;;3.30;;
38132;SDS011;23948;43.252;26.572;2022-11-20T06:52:24;13.90;;;3.75;;
38132;SDS011;23948;43.252;26.572;2022-11-20T06:54:50;10.00;;;3.30;;
38132;SDS011;23948;43.252;26.572;2022-11-20T06:57:15;9.75;;;3.20;;
38132;SDS011;23948;43.252;26.572;2022-11-20T06:59:41;6.97;;;2.80;;
38132;SDS011;23948;43.252;26.572;2022-11-20T07:02:09;11.88;;;5.13;;
38132;SDS011;23948;43.252;26.572;2022-11-20T07:04:36;12.38;;;3.47;;
38132;SDS011;23948;43.252;26.572;2022-11-20T07:07:02;9.80;;;3.33;;
38132;SDS011;23948;43.252;26.572;2022-11-20T07:09:27;10.73;;;3.50;;
38132;SDS011;23948;43.252;26.572;2022-11-20T07:11:53;17.27;;;3.50;;
38132;SDS011;23948;43.252;26.572;2022-11-20T07:14:18;10.15;;;3.13;;
38132;SDS011;23948;43.252;26.572;2022-11-20T07:16:44;10.52;;;2.95;;
38132;SDS011;23948;43.252;26.572;2022-11-20T07:19:09;11.00;;;2.92;;
38132;SDS011;23948;43.252;26.572;2022-11-20T07:21:35;10.95;;;3.15;;
38132;SDS011;23948;43.252;26.572;2022-11-20T07:24:00;10.43;;;3.13;;
38132;SDS011;23948;43.252;26.572;2022-11-20T07:26:26;9.43;;;2.75;;
38132;SDS011;23948;43.252;26.572;2022-11-20T07:28:51;11.52;;;3.50;;
38132;SDS011;23948;43.252;26.572;2022-11-20T07:31:16;12.40;;;3.30;;
38132;SDS011;23948;43.252;26.572;2022-11-20T07:33:42;11.52;;;3.35;;
38132;SDS011;23948;43.252;26.572;2022-11-20T07:36:07;14.07;;;3.50;;
38132;SDS011;23948;43.252;26.572;2022-11-20T07:38:33;14.65;;;3.75;;
38132;SDS011;23948;43.252;26.572;2022-11-20T07:40:58;10.95;;;3.25;;
38132;SDS011;23948;43.252;26.572;2022-11-20T07:43:26;9.75;;;3.50;;
38132;SDS011;23948;43.252;26.572;2022-11-20T07:45:54;13.40;;;3.83;;
38132;SDS011;23948;43.252;26.572;2022-11-20T07:48:21;13.68;;;3.90;;
38132;SDS011;23948;43.252;26.572;2022-11-20T07:50:46;10.23;;;3.22;;
38132;SDS011;23948;43.252;26.572;2022-11-20T07:53:12;11.65;;;4.15;;
38132;SDS011;23948;43.252;26.572;2022-11-20T07:55:38;12.68;;;3.92;;
38132;SDS011;23948;43.252;26.572;2022-11-20T07:58:04;13.02;;;4.07;;
38132;SDS011;23948;43.252;26.572;2022-11-20T08:00:29;9.43;;;3.92;;
38132;SDS011;23948;43.252;26.572;2022-11-20T08:02:55;8.80;;;3.85;;
38132;SDS011;23948;43.252;26.572;2022-11-20T08:05:21;10.07;;;3.88;;
38132;SDS011;23948;43.252;26.572;2022-11-20T08:07:46;12.65;;;3.88;;
38132;SDS011;23948;43.252;26.572;2022-11-20T08:10:13;14.38;;;3.70;;
38132;SDS011;23948;43.252;26.572;2022-11-20T08:12:47;15.65;;;4.30;;
38132;SDS011;23948;43.252;26.572;2022-11-20T08:15:32;9.32;;;3.60;;
38132;SDS011;23948;43.252;26.572;2022-11-20T08:18:02;13.25;;;4.10;;
38132;SDS011;23948;43.252;26.572;2022-11-20T08:20:32;27.70;;;15.23;;
38132;SDS011;23948;43.252;26.572;2022-11-20T08:22:58;14.02;;;4.90;;
38132;SDS011;23948;43.252;26.572;2022-11-20T08:25:26;13.57;;;3.78;;
38132;SDS011;23948;43.252;26.572;2022-11-20T08:27:53;11.18;;;4.45;;
38132;SDS011;23948;43.252;26.572;2022-11-20T08:30:18;12.68;;;4.93;;
38132;SDS011;23948;43.252;26.572;2022-11-20T08:32:44;14.48;;;5.13;;
38132;SDS011;23948;43.252;26.572;2022-11-20T08:35:09;13.80;;;5.05;;
38132;SDS011;23948;43.252;26.572;2022-11-20T08:37:35;26.98;;;13.48;;
38132;SDS011;23948;43.252;26.572;2022-11-20T08:40:02;17.85;;;7.40;;
38132;SDS011;23948;43.252;26.572;2022-11-20T08:42:28;23.73;;;8.13;;
38132;SDS011;23948;43.252;26.572;2022-11-20T08:44:53;13.65;;;7.55;;
38132;SDS011;23948;43.252;26.572;2022-11-20T08:47:19;14.43;;;5.22;;
38132;SDS011;23948;43.252;26.572;2022-11-20T08:49:44;13.13;;;4.75;;
38132;SDS011;23948;43.252;26.572;2022-11-20T08:52:09;14.02;;;5.90;;
38132;SDS011;23948;43.252;26.572;2022-11-20T08:54:35;15.18;;;6.03;;
38132;SDS011;23948;43.252;26.572;2022-11-20T08:57:00;23.15;;;13.07;;
38132;SDS011;23948;43.252;26.572;2022-11-20T08:59:26;25.77;;;13.90;;
38132;SDS011;23948;43.252;26.572;2022-11-20T09:01:51;19.33;;;10.50;;
38132;SDS011;23948;43.252;26.572;2022-11-20T09:04:19;15.45;;;5.85;;
38132;SDS011;23948;43.252;26.572;2022-11-20T09:06:44;11.82;;;6.88;;
38132;SDS011;23948;43.252;26.572;2022-11-20T09:09:10;11.38;;;7.25;;
38132;SDS011;23948;43.252;26.572;2022-11-20T09:11:35;13.85;;;7.63;;
38132;SDS011;23948;43.252;26.572;2022-11-20T09:14:01;12.05;;;8.10;;
38132;SDS011;23948;43.252;26.572;2022-11-20T09:16:27;14.93;;;8.73;;
38132;SDS011;23948;43.252;26.572;2022-11-20T09:18:53;17.50;;;10.80;;
38132;SDS011;23948;43.252;26.572;2022-11-20T09:21:18;14.52;;;10.32;;
38132;SDS011;23948;43.252;26.572;2022-11-20T09:23:44;14.75;;;10.43;;
38132;SDS011;23948;43.252;26.572;2022-11-20T09:26:11;17.20;;;11.40;;
38132;SDS011;23948;43.252;26.572;2022-11-20T09:28:38;14.70;;;11.50;;
38132;SDS011;23948;43.252;26.572;2022-11-20T09:31:07;15.00;;;11.07;;
38132;SDS011;23948;43.252;26.572;2022-11-20T09:33:38;16.33;;;11.60;;
38132;SDS011;23948;43.252;26.572;2022-11-20T09:36:03;15.70;;;11.75;;
38132;SDS011;23948;43.252;26.572;2022-11-20T09:38:29;15.52;;;12.52;;
38132;SDS011;23948;43.252;26.572;2022-11-20T09:43:26;16.85;;;11.55;;
38132;SDS011;23948;43.252;26.572;2022-11-20T09:51:53;16.73;;;12.45;;
38132;SDS011;23948;43.252;26.572;2022-11-20T09:54:56;19.20;;;14.40;;
38132;SDS011;23948;43.252;26.572;2022-11-20T09:57:19;16.73;;;12.75;;
38132;SDS011;23948;43.252;26.572;2022-11-20T09:59:53;16.95;;;13.05;;
38132;SDS011;23948;43.252;26.572;2022-11-20T10:02:36;18.10;;;13.07;;
38132;SDS011;23948;43.252;26.572;2022-11-20T10:05:08;19.13;;;12.85;;
38132;SDS011;23948;43.252;26.572;2022-11-20T10:07:52;17.50;;;13.32;;
38132;SDS011;23948;43.252;26.572;2022-11-20T10:10:33;17.75;;;14.52;;
38132;SDS011;23948;43.252;26.572;2022-11-20T10:13:03;20.13;;;15.02;;
38132;SDS011;23948;43.252;26.572;2022-11-20T10:18:48;22.80;;;16.25;;
38132;SDS011;23948;43.252;26.572;2022-11-20T10:29:32;22.77;;;16.80;;
38132;SDS011;23948;43.252;26.572;2022-11-20T10:32:03;25.33;;;17.50;;
38132;SDS011;23948;43.252;26.572;2022-11-20T10:37:13;20.70;;;16.25;;
38132;SDS011;23948;43.252;26.572;2022-11-20T10:47:54;22.70;;;16.17;;
38132;SDS011;23948;43.252;26.572;2022-11-20T10:50:26;23.80;;;16.63;;
38132;SDS011;23948;43.252;26.572;2022-11-20T10:55:46;23.38;;;16.52;;
38132;SDS011;23948;43.252;26.572;2022-11-20T10:58:30;25.75;;;16.42;;
38132;SDS011;23948;43.252;26.572;2022-11-20T11:01:05;27.65;;;17.38;;
38132;SDS011;23948;43.252;26.572;2022-11-20T11:03:38;24.25;;;16.63;;
38132;SDS011;23948;43.252;26.572;2022-11-20T11:06:08;22.52;;;17.35;;
38132;SDS011;23948;43.252;26.572;2022-11-20T11:08:42;22.70;;;16.05;;
38132;SDS011;23948;43.252;26.572;2022-11-20T11:11:20;19.52;;;14.65;;
38132;SDS011;23948;43.252;26.572;2022-11-20T11:13:48;18.98;;;14.55;;
38132;SDS011;23948;43.252;26.572;2022-11-20T11:16:23;19.92;;;15.10;;
38132;SDS011;23948;43.252;26.572;2022-11-20T11:18:51;18.98;;;14.85;;
38132;SDS011;23948;43.252;26.572;2022-11-20T11:21:23;24.35;;;19.20;;
38132;SDS011;23948;43.252;26.572;2022-11-20T11:23:57;21.00;;;15.18;;
38132;SDS011;23948;43.252;26.572;2022-11-20T11:26:25;19.42;;;14.55;;
38132;SDS011;23948;43.252;26.572;2022-11-20T11:28:57;19.92;;;15.07;;
38132;SDS011;23948;43.252;26.572;2022-11-20T11:31:29;23.80;;;17.38;;
38132;SDS011;23948;43.252;26.572;2022-11-20T11:34:15;20.20;;;14.13;;
38132;SDS011;23948;43.252;26.572;2022-11-20T11:36:42;18.15;;;14.50;;
38132;SDS011;23948;43.252;26.572;2022-11-20T11:39:19;18.95;;;15.15;;
38132;SDS011;23948;43.252;26.572;2022-11-20T11:41:46;20.38;;;13.48;;
38132;SDS011;23948;43.252;26.572;2022-11-20T11:44:24;18.60;;;13.85;;
38132;SDS011;23948;43.252;26.572;2022-11-20T11:49:44;22.55;;;14.93;;
38132;SDS011;23948;43.252;26.572;2022-11-20T11:52:12;17.48;;;13.98;;
38132;SDS011;23948;43.252;26.572;2022-11-20T12:02:36;22.52;;;16.55;;
38132;SDS011;23948;43.252;26.572;2022-11-20T12:07:43;18.55;;;14.30;;
38132;SDS011;23948;43.252;26.572;2022-11-20T12:10:56;20.38;;;14.85;;
38132;SDS011;23948;43.252;26.572;2022-11-20T12:16:04;23.95;;;17.52;;
38132;SDS011;23948;43.252;26.572;2022-11-20T12:18:30;20.30;;;15.43;;
38132;SDS011;23948;43.252;26.572;2022-11-20T12:32:01;22.95;;;16.38;;
38132;SDS011;23948;43.252;26.572;2022-11-20T12:35:00;32.35;;;22.42;;
38132;SDS011;23948;43.252;26.572;2022-11-20T12:37:53;28.55;;;21.75;;
38132;SDS011;23948;43.252;26.572;2022-11-20T12:40:53;27.08;;;19.05;;
38132;SDS011;23948;43.252;26.572;2022-11-20T12:43:29;29.83;;;21.98;;
38132;SDS011;23948;43.252;26.572;2022-11-20T12:46:43;22.40;;;17.05;;
38132;SDS011;23948;43.252;26.572;2022-11-20T12:57:29;25.95;;;19.58;;
38132;SDS011;23948;43.252;26.572;2022-11-20T13:08:25;26.33;;;19.45;;
38132;SDS011;23948;43.252;26.572;2022-11-20T13:19:13;28.38;;;19.92;;
38132;SDS011;23948;43.252;26.572;2022-11-20T13:21:42;26.92;;;17.60;;
38132;SDS011;23948;43.252;26.572;2022-11-20T13:29:26;51.75;;;40.17;;
38132;SDS011;23948;43.252;26.572;2022-11-20T13:32:00;38.70;;;30.33;;
38132;SDS011;23948;43.252;26.572;2022-11-20T13:34:29;39.08;;;27.65;;
38132;SDS011;23948;43.252;26.572;2022-11-20T13:36:56;43.58;;;32.58;;
38132;SDS011;23948;43.252;26.572;2022-11-20T13:39:26;37.95;;;27.35;;
38132;SDS011;23948;43.252;26.572;2022-11-20T13:41:57;35.28;;;25.58;;
38132;SDS011;23948;43.252;26.572;2022-11-20T13:44:25;34.88;;;23.80;;
38132;SDS011;23948;43.252;26.572;2022-11-20T13:47:03;32.03;;;22.75;;
38132;SDS011;23948;43.252;26.572;2022-11-20T13:49:42;26.05;;;19.67;;
38132;SDS011;23948;43.252;26.572;2022-11-20T13:55:18;27.17;;;19.85;;
38132;SDS011;23948;43.252;26.572;2022-11-20T14:03:33;19.63;;;15.00;;
38132;SDS011;23948;43.252;26.572;2022-11-20T14:06:49;19.88;;;13.60;;
38132;SDS011;23948;43.252;26.572;2022-11-20T14:08:56;18.47;;;13.77;;
38132;SDS011;23948;43.252;26.572;2022-11-20T14:11:23;17.42;;;13.40;;
38132;SDS011;23948;43.252;26.572;2022-11-20T14:16:21;20.50;;;14.85;;
38132;SDS011;23948;43.252;26.572;2022-11-20T14:18:46;21.23;;;14.40;;
38132;SDS011;23948;43.252;26.572;2022-11-20T14:21:20;24.30;;;17.58;;
38132;SDS011;23948;43.252;26.572;2022-11-20T14:23:45;24.25;;;18.20;;
38132;SDS011;23948;43.252;26.572;2022-11-20T14:26:12;27.42;;;21.10;;
38132;SDS011;23948;43.252;26.572;2022-11-20T14:28:39;28.63;;;21.15;;
38132;SDS011;23948;43.252;26.572;2022-11-20T14:31:08;28.27;;;20.48;;
38132;SDS011;23948;43.252;26.572;2022-11-20T14:33:41;30.40;;;20.60;;
38132;SDS011;23948;43.252;26.572;2022-11-20T14:36:15;28.20;;;19.50;;
38132;SDS011;23948;43.252;26.572;2022-11-20T14:38:41;25.65;;;18.63;;
38132;SDS011;23948;43.252;26.572;2022-11-20T14:41:20;22.85;;;17.80;;
38132;SDS011;23948;43.252;26.572;2022-11-20T14:44:29;23.38;;;17.13;;
38132;SDS011;23948;43.252;26.572;2022-11-20T14:46:34;24.52;;;18.35;;
38132;SDS011;23948;43.252;26.572;2022-11-20T14:49:00;28.80;;;22.15;;
38132;SDS011;23948;43.252;26.572;2022-11-20T14:51:30;23.95;;;19.08;;
38132;SDS011;23948;43.252;26.572;2022-11-20T14:54:19;25.27;;;19.48;;
38132;SDS011;23948;43.252;26.572;2022-11-20T14:56:59;28.63;;;22.02;;
38132;SDS011;23948;43.252;26.572;2022-11-20T14:59:31;40.17;;;28.35;;
38132;SDS011;23948;43.252;26.572;2022-11-20T15:02:10;40.85;;;28.80;;
38132;SDS011;23948;43.252;26.572;2022-11-20T15:04:48;48.75;;;31.38;;
38132;SDS011;23948;43.252;26.572;2022-11-20T15:07:23;53.90;;;37.10;;
38132;SDS011;23948;43.252;26.572;2022-11-20T15:09:58;60.15;;;42.03;;
38132;SDS011;23948;43.252;26.572;2022-11-20T15:12:23;55.13;;;40.95;;
38132;SDS011;23948;43.252;26.572;2022-11-20T15:14:49;50.45;;;37.53;;
38132;SDS011;23948;43.252;26.572;2022-11-20T15:17:14;53.88;;;37.30;;
38132;SDS011;23948;43.252;26.572;2022-11-20T15:19:40;52.78;;;37.60;;
38132;SDS011;23948;43.252;26.572;2022-11-20T15:22:07;46.40;;;34.15;;
38132;SDS011;23948;43.252;26.572;2022-11-20T15:24:35;39.70;;;29.15;;
38132;SDS011;23948;43.252;26.572;2022-11-20T15:27:00;48.03;;;36.70;;
38132;SDS011;23948;43.252;26.572;2022-11-20T15:29:26;44.67;;;32.50;;
38132;SDS011;23948;43.252;26.572;2022-11-20T15:31:51;46.28;;;32.85;;
38132;SDS011;23948;43.252;26.572;2022-11-20T15:34:18;76.40;;;51.30;;
38132;SDS011;23948;43.252;26.572;2022-11-20T15:36:46;63.33;;;44.63;;
38132;SDS011;23948;43.252;26.572;2022-11-20T15:39:11;62.30;;;47.42;;
38132;SDS011;23948;43.252;26.572;2022-11-20T15:41:37;54.95;;;45.95;;
38132;SDS011;23948;43.252;26.572;2022-11-20T15:44:05;42.45;;;34.30;;
38132;SDS011;23948;43.252;26.572;2022-11-20T15:46:32;55.28;;;42.33;;
38132;SDS011;23948;43.252;26.572;2022-11-20T15:49:02;48.13;;;34.83;;
38132;SDS011;23948;43.252;26.572;2022-11-20T15:53:54;26.38;;;16.98;;
38132;SDS011;23948;43.252;26.572;2022-11-20T15:56:19;24.52;;;15.63;;
38132;SDS011;23948;43.252;26.572;2022-11-20T15:58:45;21.00;;;15.93;;
38132;SDS011;23948;43.252;26.572;2022-11-20T16:01:11;33.40;;;19.23;;
38132;SDS011;23948;43.252;26.572;2022-11-20T16:03:37;32.50;;;22.17;;
38132;SDS011;23948;43.252;26.572;2022-11-20T16:06:02;32.05;;;23.23;;
38132;SDS011;23948;43.252;26.572;2022-11-20T16:08:28;22.45;;;15.57;;
38132;SDS011;23948;43.252;26.572;2022-11-20T16:10:53;18.88;;;13.70;;
38132;SDS011;23948;43.252;26.572;2022-11-20T16:13:18;17.23;;;11.85;;
38132;SDS011;23948;43.252;26.572;2022-11-20T16:16:03;17.50;;;11.98;;
38132;SDS011;23948;43.252;26.572;2022-11-20T16:18:30;19.10;;;12.90;;